Terminal Aerodrome Forecast
Issued by NWS

Home | Current Version | Previous Version | Text Only | Print | Product List | Glossary On
Versions: 1 2 3 4 5 6 7 8 9 10 11 12 13 14 15
000
FTUS43 KTOP 272320
TAFMHK
TAF
KMHK 272320Z 2800/2824 15013G18KT P6SM OVC150
     FM280300 19011KT P6SM VCTS SCT060CB BKN150
      TEMPO 2808/2812 VRB15G25KT 3SM TSRA BKN030CB
     FM281300 18012KT P6SM SCT050 BKN120
     FM281700 21013KT P6SM VCTS BKN050CB
     FM282000 22010KT P6SM SCT050 BKN150=

USA.gov is the U.S. government's official web portal to all federal, state and local government web resources and services.